createdAt,value
2023-04-02T00:04:26.303Z,100660.06
2023-04-02T00:09:37.223Z,100669.03
2023-04-02T00:14:39.814Z,100671.84
2023-04-02T00:19:49.881Z,100678.16
2023-04-02T00:24:55.045Z,100700.47
2023-04-02T00:29:59.343Z,100702.38
2023-04-02T00:35:05.746Z,100712.75
2023-04-02T00:40:16.580Z,100731.44
2023-04-02T00:45:25.656Z,100742.34
2023-04-02T00:50:35.134Z,100745.66
2023-04-02T00:55:41.294Z,100742.38
2023-04-02T01:00:50.332Z,100761.88
2023-04-02T01:06:01.526Z,100682.81
2023-04-02T01:11:14.761Z,100781.78
2023-04-02T01:16:26.144Z,100737.09
2023-04-02T01:21:47.113Z,100803.66
2023-04-02T01:26:57.489Z,100795.97
2023-04-02T01:32:04.583Z,100747.59
2023-04-02T01:37:22.142Z,100741.66
2023-04-02T01:42:31.904Z,100696.84
2023-04-02T01:47:36.447Z,100805.19
2023-04-02T01:52:42.047Z,100686.81
2023-04-02T01:57:51.032Z,100854.13
2023-04-02T02:02:55.651Z,100866.38
2023-04-02T02:08:01.255Z,100807.09
2023-04-02T02:13:04.601Z,100882.22
2023-04-02T02:18:12.014Z,100853.88
2023-04-02T02:23:15.289Z,100746.88
2023-04-02T02:28:22.435Z,100896.66
2023-04-02T02:33:31.565Z,100905.56
2023-04-02T02:38:48.196Z,100930.09
2023-04-02T02:44:01.615Z,100933.38
2023-04-02T02:49:08.247Z,100905.50
2023-04-02T02:54:11.416Z,100904.03
2023-04-02T02:59:17.010Z,100936.97
2023-04-02T03:04:24.290Z,100849.19
2023-04-02T03:09:37.836Z,100995.63
2023-04-02T03:14:45.300Z,100971.34
2023-04-02T03:19:56.299Z,100917.63
2023-04-02T03:25:06.079Z,101020.59
2023-04-02T03:30:27.855Z,100966.28
2023-04-02T03:35:38.766Z,101040.19
2023-04-02T03:40:45.099Z,100908.38
2023-04-02T03:45:52.665Z,101067.50
2023-04-02T03:51:04.018Z,101029.63
2023-04-02T03:56:07.766Z,101097.97
2023-04-02T04:01:18.438Z,101110.03
2023-04-02T04:06:27.640Z,101118.34
2023-04-02T04:11:33.733Z,101124.41
2023-04-02T04:16:46.193Z,101076.72
2023-04-02T04:35:32.337Z,101187.63
2023-04-02T04:40:45.174Z,101195.44
2023-04-02T04:45:52.552Z,101207.63
2023-04-02T04:51:03.328Z,101217.47
2023-04-02T04:56:18.806Z,101221.81
2023-04-02T05:01:30.174Z,101236.66
2023-04-02T05:06:38.874Z,101256.84
2023-04-02T05:11:46.585Z,101264.50
2023-04-02T05:16:58.010Z,101267.97
2023-04-02T05:22:13.694Z,101281.19
2023-04-02T05:27:25.995Z,101299.00
2023-04-02T05:32:35.537Z,101318.28
2023-04-02T05:37:41.105Z,101329.72
2023-04-02T05:42:49.199Z,101335.94
2023-04-02T05:47:59.766Z,101343.53
2023-04-02T05:53:17.090Z,101359.38
2023-04-02T06:03:46.050Z,101385.94
2023-04-02T06:08:57.795Z,101387.28
2023-04-02T06:14:01.522Z,101402.63
2023-04-02T06:19:08.465Z,101417.44
2023-04-02T06:24:16.893Z,101436.41
2023-04-02T06:29:27.486Z,101438.03
2023-04-02T06:34:33.037Z,101445.53
2023-04-02T06:39:41.981Z,101459.81
2023-04-02T06:44:45.257Z,101467.31
2023-04-02T06:50:23.590Z,101478.16
2023-04-02T06:55:38.569Z,101482.00
2023-04-02T07:00:43.327Z,101499.25
2023-04-02T07:05:50.926Z,101509.09
2023-04-02T07:10:56.128Z,101536.47
2023-04-02T07:16:00.441Z,101536.81
2023-04-02T07:21:03.711Z,101545.81
2023-04-02T07:26:09.457Z,101551.03
2023-04-02T07:31:17.808Z,101533.50
2023-04-02T07:36:22.397Z,101583.75
2023-04-02T07:41:27.451Z,101597.16
2023-04-02T07:46:30.125Z,101611.28
2023-04-02T07:51:32.803Z,101611.47
2023-04-02T07:56:38.381Z,101609.22
2023-04-02T08:01:43.039Z,101623.44
2023-04-02T08:06:46.851Z,101599.66
2023-04-02T08:11:51.056Z,101643.44
2023-04-02T08:16:56.121Z,101652.97
2023-04-02T08:21:58.930Z,101676.16
2023-04-02T08:27:02.950Z,101656.72
2023-04-02T08:32:05.880Z,101685.34
2023-04-02T08:37:10.894Z,101702.72
2023-04-02T08:42:23.292Z,101709.78
2023-04-02T08:47:29.757Z,101718.78
2023-04-02T08:52:35.738Z,101717.22
2023-04-02T08:57:47.941Z,101735.88
2023-04-02T09:02:56.209Z,101749.41
2023-04-02T09:08:02.938Z,101753.91
2023-04-02T09:13:16.534Z,101759.16
2023-04-02T09:18:20.432Z,101764.28
2023-04-02T09:23:25.937Z,101788.09
2023-04-02T09:28:29.972Z,101801.38
2023-04-02T09:33:44.810Z,101807.78
2023-04-02T09:39:06.399Z,101817.72
2023-04-02T09:44:20.635Z,101822.81
2023-04-02T09:49:26.615Z,101817.78
2023-04-02T09:54:29.837Z,101832.38
2023-04-02T09:59:34.125Z,101828.78
2023-04-02T10:04:44.260Z,101847.50
2023-04-02T10:09:58.909Z,101858.06
2023-04-02T10:15:05.992Z,101865.28
2023-04-02T10:20:20.517Z,101878.69
2023-04-02T10:25:29.814Z,101879.72
2023-04-02T10:30:44.649Z,101893.78
2023-04-02T10:35:56.351Z,101910.00
2023-04-02T10:41:01.604Z,101927.19
2023-04-02T10:46:11.487Z,101919.28
2023-04-02T10:51:29.456Z,101949.66
2023-04-02T10:56:44.127Z,101947.66
2023-04-02T11:01:56.310Z,101969.91
2023-04-02T11:07:13.251Z,101980.28
2023-04-02T11:12:24.280Z,101986.31
2023-04-02T11:17:28.451Z,101989.69
2023-04-02T11:22:31.375Z,101982.41
2023-04-02T11:27:35.260Z,101991.72
2023-04-02T11:32:42.650Z,102001.63
2023-04-02T11:37:46.615Z,102004.72
2023-04-02T11:42:49.716Z,102002.66
2023-04-02T11:48:30.493Z,102018.13
2023-04-02T11:53:35.833Z,102013.56
2023-04-02T11:58:52.937Z,102029.25
2023-04-02T12:04:36.848Z,102023.66
2023-04-02T12:09:47.567Z,102037.72
2023-04-02T12:14:52.796Z,102045.91
2023-04-02T12:19:58.316Z,102065.13
2023-04-02T12:25:04.795Z,102055.59
2023-04-02T12:30:17.708Z,102068.84
2023-04-02T12:35:29.802Z,102053.44
2023-04-02T12:40:34.257Z,102076.69
2023-04-02T12:45:37.501Z,102090.81
2023-04-02T12:50:41.684Z,102087.19
2023-04-02T12:55:48.031Z,102094.66
2023-04-02T13:00:50.730Z,102103.16
2023-04-02T13:05:56.025Z,102105.38
2023-04-02T13:11:02.605Z,102107.63
2023-04-02T13:16:08.541Z,102112.84
2023-04-02T13:21:28.352Z,102115.78
2023-04-02T13:26:32.700Z,102127.91
2023-04-02T13:31:35.321Z,102117.09
2023-04-02T13:36:38.106Z,102126.38
2023-04-02T13:41:45.253Z,102128.13
2023-04-02T13:46:48.026Z,102135.31
2023-04-02T13:51:52.290Z,102132.13
2023-04-02T13:56:57.382Z,102131.00
2023-04-02T14:02:07.023Z,102133.19
2023-04-02T14:07:25.916Z,102142.84
2023-04-02T14:12:41.939Z,102140.81
2023-04-02T14:17:56.269Z,102132.25
2023-04-02T14:23:22.976Z,102129.59
2023-04-02T14:28:38.071Z,102131.22
2023-04-02T14:33:50.345Z,102133.34
2023-04-02T14:38:58.613Z,102142.47
2023-04-02T14:44:05.251Z,102149.41
2023-04-02T14:49:22.296Z,102162.03
2023-04-02T14:54:32.499Z,102165.44
2023-04-02T14:59:41.981Z,102165.59
2023-04-02T15:04:47.497Z,102164.25
2023-04-02T15:09:55.751Z,102171.31
2023-04-02T15:15:09.505Z,102106.72
2023-04-02T15:20:15.838Z,102180.75
2023-04-02T15:25:29.636Z,102177.03
2023-04-02T15:30:38.696Z,102184.13
2023-04-02T15:35:48.383Z,102191.44
2023-04-02T15:40:58.395Z,102168.38
2023-04-02T15:46:13.352Z,102197.84
2023-04-02T15:51:29.678Z,102200.75
2023-04-02T15:56:41.475Z,102211.28
2023-04-02T16:01:55.076Z,102217.41
2023-04-02T16:07:13.287Z,102226.19
2023-04-02T16:12:17.483Z,102230.25
2023-04-02T16:17:28.174Z,102236.38
2023-04-02T16:22:33.249Z,102249.34
2023-04-02T16:27:42.256Z,102241.25
2023-04-02T16:32:57.709Z,102246.59
2023-04-02T16:38:09.702Z,102257.53
2023-04-02T16:43:25.865Z,102258.22
2023-04-02T16:48:40.640Z,102159.47
2023-04-02T16:54:01.523Z,102286.16
2023-04-02T16:59:18.864Z,102297.97
2023-04-02T17:04:53.497Z,102313.09
2023-04-02T17:10:03.061Z,102315.22
2023-04-02T17:15:26.752Z,102319.94
2023-04-02T17:20:32.972Z,102338.56
2023-04-02T17:25:40.653Z,102346.81
2023-04-02T17:30:48.679Z,102355.75
2023-04-02T17:36:03.582Z,102352.84
2023-04-02T17:41:16.735Z,102357.81
2023-04-02T17:46:29.776Z,102363.03
2023-04-02T17:51:41.366Z,102368.72
2023-04-02T17:57:11.870Z,102383.75
2023-04-02T18:02:30.350Z,102392.63
2023-04-02T18:07:42.967Z,102388.88
2023-04-02T18:12:57.026Z,102395.25
2023-04-02T18:18:09.090Z,102404.25
2023-04-02T18:23:24.939Z,102400.88
2023-04-02T18:28:41.762Z,102425.66
2023-04-02T18:34:13.072Z,102432.50
2023-04-02T18:39:28.735Z,102400.53
2023-04-02T18:44:49.320Z,102434.22
2023-04-02T18:50:04.428Z,102442.16
2023-04-02T18:55:17.755Z,102448.78
2023-04-02T19:00:29.418Z,102462.22
2023-04-02T19:05:40.507Z,102466.69
2023-04-02T19:10:46.332Z,102473.34
2023-04-02T19:16:24.139Z,102477.19
2023-04-02T19:21:37.273Z,102478.09
2023-04-02T19:26:50.011Z,102489.38
2023-04-02T19:31:59.685Z,102462.88
2023-04-02T19:37:09.501Z,102508.59
2023-04-02T19:42:22.497Z,102496.34
2023-04-02T19:47:25.309Z,102498.41
2023-04-02T19:52:27.855Z,102510.78
2023-04-02T19:57:31.804Z,102521.22
2023-04-02T20:02:34.500Z,102524.97
2023-04-02T20:07:37.154Z,102511.69
2023-04-02T20:12:41.212Z,102536.19
2023-04-02T20:17:43.911Z,102537.59
2023-04-02T20:22:50.950Z,102530.72
2023-04-02T20:27:55.431Z,102545.69
2023-04-02T20:33:01.346Z,102563.06
2023-04-02T20:38:07.471Z,102558.16
2023-04-02T20:43:13.033Z,102569.16
2023-04-02T20:48:16.646Z,102576.06
2023-04-02T20:53:19.259Z,102575.16
2023-04-02T20:58:23.782Z,102575.34
2023-04-02T21:03:26.511Z,102587.47
2023-04-02T21:08:29.076Z,102600.81
2023-04-02T21:13:35.898Z,102601.56
2023-04-02T21:18:38.462Z,102603.31
2023-04-02T21:23:41.904Z,102607.13
2023-04-02T21:28:46.775Z,102614.53
2023-04-02T21:33:51.898Z,102599.25
2023-04-02T21:38:56.435Z,102570.66
2023-04-02T21:44:02.951Z,102549.91
2023-04-02T21:49:08.132Z,102611.97
2023-04-02T21:54:10.889Z,102605.59
2023-04-02T21:59:17.280Z,102615.31
2023-04-02T22:04:21.716Z,102616.47
2023-04-02T22:09:26.190Z,102629.13
2023-04-02T22:14:30.701Z,102631.59
2023-04-02T22:19:33.276Z,102631.22
2023-04-02T22:24:35.840Z,102633.78
2023-04-02T22:29:39.704Z,102640.66
2023-04-02T22:34:45.519Z,102643.69
2023-04-02T22:39:48.246Z,102620.50
2023-04-02T22:44:52.394Z,102650.72
2023-04-02T22:49:55.033Z,102653.75
2023-04-02T22:54:57.578Z,102663.13
2023-04-02T23:00:01.554Z,102660.53
2023-04-02T23:05:04.615Z,102649.81
2023-04-02T23:10:08.125Z,102661.59
2023-04-02T23:15:12.518Z,102574.63
2023-04-02T23:20:15.285Z,102667.59
2023-04-02T23:25:17.972Z,102667.94
2023-04-02T23:30:22.073Z,102670.31
2023-04-02T23:35:25.259Z,102657.31
2023-04-02T23:40:27.826Z,102671.09
2023-04-02T23:45:31.783Z,102561.03
2023-04-02T23:50:34.919Z,102672.94
2023-04-02T23:55:37.775Z,102674.03
